Time;durP1;ratioP1;P1;durP2;ratioP2;P2;SDS_P1;SDS_P2;PMS_P1;PMS_P2;Temp;Humidity;BMP_temperature;BMP_pressure;BME280_temperature;BME280_humidity;BME280_pressure;Samples;Min_cycle;Max_cycle;Signal;HPM_P1;HPM_P2
2022/09/28 00:00:58;;;;;;;2.55;1.83;;;6.30;99.90;;;;;;5087198;28;20044;-77
2022/09/28 00:03:24;;;;;;;1.70;1.60;;;6.40;99.90;;;;;;5087069;28;20460;-76
2022/09/28 00:05:49;;;;;;;1.38;1.27;;;6.20;99.90;;;;;;5086911;28;20080;-76
2022/09/28 00:08:15;;;;;;;1.67;1.25;;;6.20;99.90;;;;;;5087290;28;20066;-77
2022/09/28 00:10:42;;;;;;;1.55;1.42;;;6.10;99.90;;;;;;5069980;28;20044;-76
2022/09/28 00:13:08;;;;;;;8.77;1.63;;;6.00;99.90;;;;;;5053057;28;20057;-76
2022/09/28 00:15:34;;;;;;;11.73;1.70;;;6.00;99.90;;;;;;5091148;28;20039;-76
2022/09/28 00:18:00;;;;;;;1.80;1.50;;;6.00;99.90;;;;;;5090738;28;20052;-77
2022/09/28 00:20:25;;;;;;;6.78;1.77;;;6.00;99.90;;;;;;5086621;28;20043;-76
2022/09/28 00:22:51;;;;;;;8.13;1.80;;;6.00;99.90;;;;;;5070849;28;20032;-77
2022/09/28 00:25:17;;;;;;;18.20;2.88;;;5.90;99.90;;;;;;5065434;28;20161;-76
2022/09/28 00:27:48;;;;;;;25.90;2.75;;;5.80;99.90;;;;;;5089652;28;20086;-76
2022/09/28 00:30:15;;;;;;;19.30;2.30;;;5.80;99.90;;;;;;5089850;28;20046;-76
2022/09/28 00:32:40;;;;;;;4.57;2.70;;;5.70;99.90;;;;;;5083726;28;20099;-76
2022/09/28 00:35:06;;;;;;;3.75;2.70;;;5.80;99.90;;;;;;5090056;28;20076;-76
2022/09/28 00:37:32;;;;;;;3.25;2.50;;;5.80;99.90;;;;;;5067328;28;20040;-76
2022/09/28 00:39:58;;;;;;;3.28;2.53;;;5.80;99.90;;;;;;5107765;28;20054;-76
2022/09/28 00:42:25;;;;;;;4.70;2.70;;;5.90;99.90;;;;;;5108450;28;20036;-76
2022/09/28 00:44:52;;;;;;;3.95;2.83;;;5.90;99.90;;;;;;5108768;28;20044;-76
2022/09/28 00:47:42;;;;;;;3.60;2.58;;;6.00;99.90;;;;;;5081992;28;20395;-77
2022/09/28 00:50:15;;;;;;;2.55;1.92;;;5.90;99.90;;;;;;5089829;28;20048;-76
2022/09/28 00:52:52;;;;;;;2.58;1.70;;;6.00;99.90;;;;;;5089576;28;20040;-78
2022/09/28 00:55:57;;;;;;;8.52;2.13;;;5.90;99.90;;;;;;5087515;28;20032;-77
2022/09/28 00:58:27;;;;;;;2.63;1.50;;;5.90;99.90;;;;;;5049249;28;20057;-78
2022/09/28 01:00:57;;;;;;;1.83;1.30;;;5.90;99.90;;;;;;5045093;28;20131;-77
2022/09/28 01:03:23;;;;;;;22.27;2.65;;;5.90;99.90;;;;;;5062455;28;20063;-77
2022/09/28 01:05:51;;;;;;;2.97;2.17;;;5.80;99.90;;;;;;5048501;28;20070;-77
2022/09/28 01:08:20;;;;;;;4.68;2.70;;;5.80;99.90;;;;;;5047657;28;20048;-77
2022/09/28 01:10:47;;;;;;;59.20;5.97;;;5.80;99.90;;;;;;5030228;28;20064;-78
2022/09/28 01:13:14;;;;;;;19.70;4.05;;;5.80;99.90;;;;;;5050211;28;20041;-77
2022/09/28 01:15:55;;;;;;;9.75;2.72;;;5.90;99.90;;;;;;5047146;28;20057;-76
2022/09/28 01:19:12;;;;;;;4.78;2.45;;;5.80;99.90;;;;;;5048788;28;20045;-76
2022/09/28 01:22:02;;;;;;;3.42;2.83;;;5.90;99.90;;;;;;4981096;28;20054;-76
2022/09/28 01:24:44;;;;;;;16.23;3.70;;;5.90;99.90;;;;;;4987327;28;20090;-75
2022/09/28 01:27:14;;;;;;;31.65;3.53;;;5.80;99.90;;;;;;4991292;28;20054;-76
2022/09/28 01:29:50;;;;;;;12.90;3.35;;;5.90;99.90;;;;;;4985188;28;20495;-75
2022/09/28 01:32:28;;;;;;;10.80;1.98;;;5.80;99.90;;;;;;4989773;28;20098;-76
2022/09/28 01:34:59;;;;;;;8.13;2.25;;;5.70;99.90;;;;;;5018646;28;20058;-75
2022/09/28 01:37:38;;;;;;;22.50;4.80;;;5.70;99.90;;;;;;5011788;28;20147;-75
2022/09/28 01:40:06;;;;;;;36.42;4.30;;;5.80;99.90;;;;;;5022299;28;20054;-75
2022/09/28 01:42:36;;;;;;;35.13;3.60;;;5.60;99.90;;;;;;5008209;28;20045;-76
2022/09/28 01:45:13;;;;;;;22.50;3.03;;;5.60;99.90;;;;;;5023574;28;20057;-75
2022/09/28 01:47:40;;;;;;;9.30;2.92;;;5.60;99.90;;;;;;5022195;28;20089;-76
2022/09/28 01:50:11;;;;;;;23.55;4.55;;;5.60;99.90;;;;;;5020198;28;20057;-75
2022/09/28 01:53:12;;;;;;;75.40;6.88;;;5.70;99.90;;;;;;5004708;28;20056;-77
2022/09/28 01:55:46;;;;;;;58.42;5.85;;;5.90;99.90;;;;;;5005822;28;20069;-76
2022/09/28 01:58:15;;;;;;;71.65;6.90;;;5.80;99.90;;;;;;5087958;28;20036;-76
2022/09/28 02:00:46;;;;;;;62.72;6.43;;;5.90;99.90;;;;;;5079124;28;20040;-76
2022/09/28 02:03:35;;;;;;;63.80;5.88;;;5.90;99.90;;;;;;5087951;28;20518;-76
2022/09/28 02:06:08;;;;;;;54.33;5.10;;;5.90;99.90;;;;;;5086836;28;20080;-75
2022/09/28 02:11:23;;;;;;;58.95;5.65;;;5.70;99.90;;;;;;5120114;27;20798;-75
2022/09/28 02:13:55;;;;;;;61.97;5.75;;;5.70;99.90;;;;;;5102119;28;20044;-75
2022/09/28 02:16:45;;;;;;;42.55;4.63;;;5.70;99.90;;;;;;5096474;28;20048;-76
2022/09/28 02:19:18;;;;;;;;;;;5.80;99.90;;;;;;5088378;28;20092;-76
2022/09/28 02:22:05;;;;;;;39.70;4.85;;;5.70;99.90;;;;;;5094159;28;19971;-75
2022/09/28 02:24:45;;;;;;;59.38;5.95;;;5.70;99.90;;;;;;5102108;28;20048;-75
2022/09/28 02:27:44;;;;;;;100.90;7.75;;;5.70;99.90;;;;;;5097957;28;20392;-75
2022/09/28 02:30:10;;;;;;;50.00;5.60;;;5.60;99.90;;;;;;5083634;28;20079;-76
2022/09/28 02:32:40;;;;;;;27.38;4.22;;;5.70;99.90;;;;;;5100336;28;20751;-76
2022/09/28 02:35:11;;;;;;;18.35;4.10;;;5.60;99.90;;;;;;5099780;28;20052;-76
2022/09/28 02:37:38;;;;;;;63.92;5.70;;;5.70;99.90;;;;;;5100915;28;20123;-76
2022/09/28 02:40:31;;;;;;;31.65;4.20;;;5.70;99.90;;;;;;5105394;28;20076;-77
2022/09/28 02:43:22;;;;;;;39.22;4.82;;;5.70;99.90;;;;;;5101863;28;20048;-77
2022/09/28 02:45:53;;;;;;;34.50;4.60;;;5.80;99.90;;;;;;5099507;28;20055;-76
2022/09/28 02:48:51;;;;;;;30.00;4.35;;;5.70;99.90;;;;;;5100764;28;20059;-77
2022/09/28 02:51:33;;;;;;;17.35;4.32;;;5.70;99.90;;;;;;5096903;28;20566;-76
2022/09/28 02:54:20;;;;;;;5.15;3.78;;;5.80;99.90;;;;;;5085053;28;20050;-77
2022/09/28 02:56:58;;;;;;;5.85;4.57;;;5.70;99.90;;;;;;5082908;28;20048;-76
2022/09/28 02:59:44;;;;;;;5.47;4.65;;;5.90;99.90;;;;;;5080291;28;20041;-76
2022/09/28 03:02:51;;;;;;;6.60;4.97;;;5.90;99.90;;;;;;5085891;28;20127;-76
2022/09/28 03:05:16;;;;;;;6.57;4.30;;;6.00;99.90;;;;;;5071215;28;20060;-76
2022/09/28 03:07:58;;;;;;;5.20;4.07;;;5.90;99.90;;;;;;5086813;28;20060;-76
2022/09/28 03:10:48;;;;;;;16.40;4.70;;;6.00;99.90;;;;;;5130057;28;20095;-77
2022/09/28 03:13:15;;;;;;;23.13;5.72;;;5.90;99.90;;;;;;5076000;28;20075;-75
2022/09/28 03:15:43;;;;;;;23.73;4.80;;;5.90;99.90;;;;;;5071818;28;20045;-76
2022/09/28 03:18:09;;;;;;;13.77;4.55;;;5.70;99.90;;;;;;5082643;28;20106;-76
2022/09/28 03:20:35;;;;;;;13.15;5.10;;;5.70;99.90;;;;;;5111568;28;20408;-76
2022/09/28 03:23:01;;;;;;;23.25;5.72;;;5.80;99.90;;;;;;5074690;28;20045;-76
2022/09/28 03:25:27;;;;;;;50.55;6.22;;;5.90;99.90;;;;;;5072970;28;20052;-76
2022/09/28 03:27:52;;;;;;;88.85;7.57;;;5.80;99.90;;;;;;5081889;28;20124;-76
2022/09/28 03:30:18;;;;;;;158.43;10.52;;;5.80;99.90;;;;;;5085587;28;20060;-77
2022/09/28 03:32:44;;;;;;;47.65;6.38;;;5.80;99.90;;;;;;5059334;28;20043;-76
2022/09/28 03:35:10;;;;;;;82.00;8.00;;;5.80;99.90;;;;;;5073489;28;20049;-76
2022/09/28 03:37:36;;;;;;;83.00;8.90;;;5.80;99.90;;;;;;5120440;28;20105;-76
2022/09/28 03:40:01;;;;;;;37.38;7.20;;;5.70;99.90;;;;;;5086087;28;20059;-75
2022/09/28 03:42:27;;;;;;;49.90;7.35;;;5.70;99.90;;;;;;5078778;28;20048;-76
2022/09/28 03:44:53;;;;;;;33.20;6.20;;;5.90;99.90;;;;;;5085987;28;20048;-75
2022/09/28 03:47:19;;;;;;;19.77;6.38;;;5.80;99.90;;;;;;5058652;28;20036;-75
2022/09/28 03:49:45;;;;;;;30.85;6.28;;;5.90;99.90;;;;;;5078837;28;20041;-75
2022/09/28 03:52:11;;;;;;;38.65;7.43;;;6.00;99.90;;;;;;5068387;28;20064;-76
2022/09/28 03:54:37;;;;;;;39.30;7.18;;;5.90;99.90;;;;;;5080589;28;20477;-75
2022/09/28 03:57:03;;;;;;;49.45;7.63;;;5.90;99.90;;;;;;5111504;28;20526;-76
2022/09/28 03:59:29;;;;;;;47.60;8.30;;;5.90;99.90;;;;;;5079823;28;20109;-75
2022/09/28 04:01:55;;;;;;;16.45;7.13;;;5.90;99.90;;;;;;5085788;28;20044;-76
2022/09/28 04:04:21;;;;;;;25.45;7.90;;;6.00;99.90;;;;;;5069906;28;20068;-76
2022/09/28 04:06:47;;;;;;;15.75;7.20;;;6.20;99.90;;;;;;5066931;28;20484;-76
2022/09/28 04:09:12;;;;;;;29.77;8.05;;;6.10;99.90;;;;;;5078133;28;20064;-78
2022/09/28 04:11:38;;;;;;;18.73;7.65;;;6.20;99.90;;;;;;5078718;28;20049;-76
2022/09/28 04:14:04;;;;;;;20.70;8.50;;;6.30;99.90;;;;;;5085266;28;20400;-76
2022/09/28 04:16:29;;;;;;;40.45;8.32;;;6.40;99.90;;;;;;5078279;28;20040;-76
2022/09/28 04:18:57;;;;;;;15.70;7.80;;;6.30;99.90;;;;;;5079674;28;20041;-77
2022/09/28 04:21:23;;;;;;;15.52;8.75;;;6.40;99.90;;;;;;5082784;28;20051;-76
2022/09/28 04:23:48;;;;;;;38.13;9.48;;;6.50;99.90;;;;;;5084307;28;20040;-76
2022/09/28 04:26:21;;;;;;;81.60;11.65;;;6.50;99.90;;;;;;5078973;28;20074;-76
2022/09/28 04:31:40;;;;;;;72.50;12.23;;;6.60;99.90;;;;;;5073487;28;20052;-76
2022/09/28 04:34:06;;;;;;;144.75;16.13;;;6.70;99.90;;;;;;5068439;28;20102;-76
2022/09/28 04:36:32;;;;;;;190.35;16.80;;;6.70;99.90;;;;;;5075711;28;20051;-76
2022/09/28 04:38:58;;;;;;;203.15;18.48;;;6.80;99.90;;;;;;5063360;28;20044;-76
2022/09/28 04:41:25;;;;;;;162.80;17.30;;;6.70;99.90;;;;;;5084637;28;20056;-76
2022/09/28 04:43:51;;;;;;;136.93;17.15;;;6.70;99.90;;;;;;5084183;28;20076;-76
2022/09/28 04:46:17;;;;;;;312.08;23.90;;;6.70;99.90;;;;;;5074884;28;20044;-76
2022/09/28 04:48:43;;;;;;;168.27;17.55;;;6.70;99.90;;;;;;5078445;28;20048;-75
2022/09/28 04:51:09;;;;;;;245.68;23.30;;;6.80;99.90;;;;;;5068381;28;20051;-76
2022/09/28 04:53:34;;;;;;;195.15;19.90;;;6.70;99.90;;;;;;5086296;28;20083;-76
2022/09/28 04:56:03;;;;;;;265.63;21.90;;;6.80;99.90;;;;;;5077658;28;20071;-76
2022/09/28 04:58:30;;;;;;;205.30;20.48;;;6.60;99.90;;;;;;5118422;28;20052;-76
2022/09/28 05:01:01;;;;;;;209.02;20.38;;;6.70;99.90;;;;;;5074410;28;20056;-76
2022/09/28 05:03:27;;;;;;;91.15;16.27;;;6.70;99.90;;;;;;5074231;28;20064;-76
2022/09/28 05:05:53;;;;;;;222.38;23.00;;;6.70;99.90;;;;;;5079125;28;20037;-75
2022/09/28 05:08:19;;;;;;;215.77;22.65;;;6.60;99.90;;;;;;5084098;28;20100;-75
2022/09/28 05:10:45;;;;;;;272.73;25.38;;;6.70;99.90;;;;;;5080882;28;20094;-76
2022/09/28 05:13:12;;;;;;;165.25;22.13;;;6.70;99.90;;;;;;5079082;28;20075;-76
2022/09/28 05:15:39;;;;;;;222.18;22.15;;;6.70;99.90;;;;;;5056602;28;20041;-76
2022/09/28 05:18:06;;;;;;;138.30;18.80;;;6.70;99.90;;;;;;5053432;28;20041;-76
2022/09/28 05:20:32;;;;;;;110.53;17.90;;;6.70;99.90;;;;;;5059795;28;20070;-75
2022/09/28 05:22:58;;;;;;;146.13;21.10;;;6.70;99.90;;;;;;5054198;28;20040;-76
2022/09/28 05:25:23;;;;;;;233.63;26.65;;;6.80;99.90;;;;;;5066765;28;20047;-76
2022/09/28 05:27:55;;;;;;;207.23;22.02;;;6.70;99.90;;;;;;5060507;28;20064;-76
2022/09/28 05:30:22;;;;;;;203.32;23.17;;;6.80;99.90;;;;;;5074916;28;20055;-76
2022/09/28 05:32:49;;;;;;;220.57;23.42;;;6.70;99.90;;;;;;5073675;28;20094;-76
2022/09/28 05:35:15;;;;;;;155.75;19.95;;;6.70;99.90;;;;;;5074839;28;20060;-76
2022/09/28 05:37:42;;;;;;;166.45;21.20;;;6.70;99.90;;;;;;5078426;28;20076;-76
2022/09/28 05:40:09;;;;;;;100.40;17.58;;;6.70;99.90;;;;;;5075476;28;20048;-76
2022/09/28 05:42:34;;;;;;;81.28;16.98;;;6.80;99.90;;;;;;5083271;28;20070;-77
2022/09/28 05:45:02;;;;;;;96.35;17.27;;;6.80;99.90;;;;;;5084102;28;20048;-77
2022/09/28 05:47:28;;;;;;;106.28;19.40;;;6.70;99.90;;;;;;5053184;28;20514;-78
2022/09/28 05:49:54;;;;;;;73.18;16.02;;;6.90;99.90;;;;;;5073779;28;20047;-78
2022/09/28 05:52:20;;;;;;;182.05;22.08;;;6.80;99.90;;;;;;5079614;28;20076;-77
2022/09/28 05:54:46;;;;;;;82.05;17.48;;;6.90;99.90;;;;;;5074052;28;20041;-77
2022/09/28 05:57:12;;;;;;;223.00;21.85;;;6.80;99.90;;;;;;5079375;28;20057;-79
2022/09/28 05:59:38;;;;;;;221.23;21.77;;;6.90;99.90;;;;;;5065112;28;20036;-79
2022/09/28 06:02:05;;;;;;;186.30;20.23;;;6.80;99.90;;;;;;5065436;28;20043;-79
2022/09/28 06:04:31;;;;;;;292.85;25.73;;;6.80;99.90;;;;;;5066698;28;20037;-78
2022/09/28 06:06:57;;;;;;;262.83;24.45;;;6.80;99.90;;;;;;5045825;28;20054;-77
2022/09/28 06:09:23;;;;;;;226.40;23.42;;;6.70;99.90;;;;;;5077321;28;20100;-76
2022/09/28 06:11:49;;;;;;;252.45;23.98;;;6.70;99.90;;;;;;5082673;28;20075;-77
2022/09/28 06:14:15;;;;;;;108.32;17.42;;;6.80;99.90;;;;;;5081975;28;20052;-74
2022/09/28 06:16:41;;;;;;;226.57;23.85;;;6.80;99.90;;;;;;5080232;28;20048;-74
2022/09/28 06:19:08;;;;;;;221.23;21.27;;;6.90;99.90;;;;;;5096904;28;20051;-72
2022/09/28 06:21:34;;;;;;;290.60;22.48;;;6.80;99.90;;;;;;5082385;28;20044;-75
2022/09/28 06:24:01;;;;;;;266.60;22.02;;;6.80;99.90;;;;;;5083798;28;20045;-74
2022/09/28 06:26:26;;;;;;;227.73;23.50;;;6.90;99.90;;;;;;5065325;28;20085;-71
2022/09/28 06:28:52;;;;;;;266.50;23.67;;;6.90;99.90;;;;;;5082003;28;20514;-73
2022/09/28 06:31:22;;;;;;;201.93;21.30;;;6.90;99.90;;;;;;5062931;28;20041;-73
2022/09/28 06:33:49;;;;;;;161.93;17.90;;;6.80;99.90;;;;;;5081740;28;20040;-73
2022/09/28 06:36:15;;;;;;;208.82;19.38;;;6.90;99.90;;;;;;5111241;28;20094;-71
2022/09/28 06:38:41;;;;;;;341.52;24.92;;;6.80;99.90;;;;;;5079084;28;20059;-71
2022/09/28 06:41:08;;;;;;;301.73;23.58;;;6.90;99.90;;;;;;5079872;28;20485;-72
2022/09/28 06:43:34;;;;;;;245.32;21.50;;;6.80;99.90;;;;;;5083390;28;20104;-71
2022/09/28 06:46:00;;;;;;;360.13;25.48;;;6.90;99.90;;;;;;5083671;28;20075;-71
2022/09/28 06:48:26;;;;;;;192.02;20.50;;;6.70;99.90;;;;;;5080183;28;20083;-72
2022/09/28 06:50:52;;;;;;;255.88;21.30;;;6.80;99.90;;;;;;5082460;28;20040;-72
2022/09/28 06:53:18;;;;;;;123.75;16.83;;;6.80;99.90;;;;;;5080459;28;20036;-75
2022/09/28 06:55:47;;;;;;;210.15;18.45;;;6.90;99.90;;;;;;5063049;28;20622;-73
2022/09/28 06:58:16;;;;;;;236.27;20.33;;;6.90;99.90;;;;;;5085643;28;20074;-71
2022/09/28 07:00:42;;;;;;;223.18;21.45;;;7.00;99.90;;;;;;5083423;28;20072;-73
2022/09/28 07:03:12;;;;;;;194.73;18.60;;;7.00;99.90;;;;;;5084644;28;20160;-72
2022/09/28 07:05:42;;;;;;;200.57;18.75;;;6.90;99.90;;;;;;5078441;28;20044;-72
2022/09/28 07:08:08;;;;;;;;;;;6.90;99.90;;;;;;5084607;28;20045;-71
2022/09/28 07:10:34;;;;;;;147.85;16.05;;;7.00;99.90;;;;;;5083950;28;20468;-71
2022/09/28 07:13:01;;;;;;;120.55;15.15;;;7.00;99.90;;;;;;5017159;28;20077;-71
2022/09/28 07:15:28;;;;;;;117.70;15.25;;;7.00;99.90;;;;;;5005167;28;20057;-71
2022/09/28 07:18:02;;;;;;;81.70;14.15;;;7.00;99.90;;;;;;5023928;28;20073;-75
2022/09/28 07:20:28;;;;;;;106.05;14.48;;;7.10;99.90;;;;;;5025607;28;20045;-72
2022/09/28 07:22:59;;;;;;;132.48;16.67;;;7.20;99.90;;;;;;5007290;28;20045;-73
2022/09/28 07:25:27;;;;;;;123.93;16.75;;;7.20;99.90;;;;;;5003595;28;20137;-72
2022/09/28 07:27:56;;;;;;;113.57;17.08;;;7.10;99.90;;;;;;5023432;28;20049;-72
2022/09/28 07:30:25;;;;;;;106.47;16.42;;;7.10;99.90;;;;;;5007260;28;20057;-71
2022/09/28 07:32:51;;;;;;;131.65;18.65;;;7.20;99.90;;;;;;5028211;28;20056;-73
2022/09/28 07:35:17;;;;;;;107.43;16.42;;;7.30;99.90;;;;;;5016367;28;20041;-72
2022/09/28 07:37:42;;;;;;;103.88;16.73;;;7.20;99.90;;;;;;5019026;28;20064;-73
2022/09/28 07:42:52;;;;;;;50.05;14.65;;;7.30;99.90;;;;;;5043912;28;20049;-71
2022/09/28 07:45:19;;;;;;;78.85;16.63;;;7.40;99.90;;;;;;5039968;28;20049;-71
2022/09/28 07:47:45;;;;;;;133.10;17.40;;;7.40;99.90;;;;;;5032535;28;20056;-71
2022/09/28 07:50:12;;;;;;;177.45;19.25;;;7.50;99.90;;;;;;5039808;28;20057;-71
2022/09/28 07:52:37;;;;;;;68.43;15.27;;;7.70;99.90;;;;;;5040811;28;20045;-67
2022/09/28 07:55:03;;;;;;;66.85;15.63;;;7.70;99.90;;;;;;5045212;28;20087;-69
2022/09/28 07:57:33;;;;;;;86.90;16.15;;;7.80;99.90;;;;;;5036959;28;20130;-73
2022/09/28 08:00:01;;;;;;;40.78;14.27;;;7.90;99.90;;;;;;5027643;28;20059;-69
2022/09/28 08:02:26;;;;;;;91.60;14.13;;;8.00;99.90;;;;;;5043470;28;20041;-69
2022/09/28 08:04:52;;;;;;;120.75;16.33;;;7.90;99.90;;;;;;5026671;28;20140;-69
2022/09/28 08:07:18;;;;;;;139.15;16.17;;;7.90;99.90;;;;;;5031035;28;20054;-70
2022/09/28 08:09:45;;;;;;;200.20;17.48;;;8.00;99.90;;;;;;5026097;28;20144;-69
2022/09/28 08:12:12;;;;;;;97.35;14.93;;;8.00;99.90;;;;;;5013777;28;20046;-69
2022/09/28 08:14:38;;;;;;;38.00;12.75;;;8.00;99.90;;;;;;5029600;28;20224;-69
2022/09/28 08:17:05;;;;;;;66.40;14.77;;;8.00;99.90;;;;;;5033836;28;20065;-69
2022/09/28 08:22:18;;;;;;;109.32;16.40;;;8.00;99.90;;;;;;5030142;28;20053;-70
2022/09/28 08:24:47;;;;;;;27.90;12.93;;;8.00;99.90;;;;;;5013199;28;20079;-69
2022/09/28 08:27:15;;;;;;;79.05;15.80;;;8.20;99.90;;;;;;5033857;28;20087;-69
2022/09/28 08:29:41;;;;;;;132.05;17.60;;;8.30;99.90;;;;;;5031295;28;20513;-69
2022/09/28 08:32:08;;;;;;;58.08;15.45;;;8.30;99.90;;;;;;5038146;28;20037;-69
2022/09/28 08:34:39;;;;;;;30.95;13.88;;;8.40;99.90;;;;;;5026883;28;20053;-69
2022/09/28 08:37:07;;;;;;;34.60;14.23;;;8.30;99.90;;;;;;5035718;28;20057;-69
2022/09/28 08:39:33;;;;;;;75.00;15.07;;;8.40;99.90;;;;;;5029075;28;20080;-69
2022/09/28 08:42:30;;;;;;;38.45;12.85;;;8.40;99.90;;;;;;5038125;28;20505;-69
2022/09/28 08:45:03;;;;;;;61.22;14.93;;;8.40;99.90;;;;;;5032479;28;20098;-69
2022/09/28 08:51:20;;;;;;;27.80;12.63;;;8.50;99.90;;;;;;5022790;28;20076;-69
2022/09/28 08:54:09;;;;;;;22.15;12.18;;;8.60;99.90;;;;;;5024590;28;20284;-69
2022/09/28 08:56:38;;;;;;;20.05;11.02;;;8.90;99.90;;;;;;5032452;28;20539;-69
2022/09/28 08:59:13;;;;;;;18.92;11.13;;;9.00;99.90;;;;;;5030274;28;20563;-68
2022/09/28 09:01:59;;;;;;;20.00;11.38;;;9.10;99.90;;;;;;5034651;28;20147;-69
2022/09/28 09:04:25;;;;;;;26.08;12.75;;;9.20;99.90;;;;;;5027921;28;20063;-69
2022/09/28 09:07:00;;;;;;;17.65;10.52;;;9.30;99.90;;;;;;5016837;28;20103;-69
2022/09/28 09:09:56;;;;;;;13.63;9.23;;;9.30;99.90;;;;;;5010577;28;20107;-68
2022/09/28 09:12:45;;;;;;;18.63;10.98;;;9.10;99.90;;;;;;5020911;28;20056;-70
2022/09/28 09:15:37;;;;;;;20.70;11.50;;;8.90;99.90;;;;;;5031690;28;20080;-69
2022/09/28 09:18:31;;;;;;;18.13;11.70;;;8.90;99.90;;;;;;5041987;28;20055;-69
2022/09/28 09:21:13;;;;;;;21.80;12.82;;;9.10;99.90;;;;;;5023619;28;20053;-69
2022/09/28 09:23:51;;;;;;;16.73;11.35;;;9.10;99.90;;;;;;5032015;28;20099;-69
2022/09/28 09:26:20;;;;;;;17.35;11.25;;;9.20;99.90;;;;;;5008795;28;20053;-69
2022/09/28 09:29:20;;;;;;;16.00;10.73;;;9.30;99.90;;;;;;5025105;28;20223;-69
2022/09/28 09:31:54;;;;;;;20.27;11.55;;;9.40;99.90;;;;;;5028623;28;20324;-69
2022/09/28 09:34:45;;;;;;;16.58;11.15;;;9.40;99.90;;;;;;5026705;28;20049;-69
2022/09/28 09:37:15;;;;;;;12.57;8.88;;;9.40;99.90;;;;;;5034758;28;20048;-69
2022/09/28 09:40:06;;;;;;;18.02;10.70;;;9.60;99.90;;;;;;5028255;28;20063;-68
2022/09/28 09:42:40;;;;;;;15.80;10.13;;;9.50;99.90;;;;;;5029938;28;20048;-69
2022/09/28 09:45:40;;;;;;;14.45;10.57;;;9.40;99.90;;;;;;5028090;28;20049;-69
2022/09/28 09:48:17;;;;;;;15.60;10.38;;;9.60;99.90;;;;;;5034797;28;20456;-68
2022/09/28 09:50:58;;;;;;;13.65;9.50;;;9.70;99.90;;;;;;5025262;28;20053;-69
2022/09/28 09:53:32;;;;;;;17.17;10.52;;;9.80;99.90;;;;;;5034000;28;20069;-68
2022/09/28 09:56:26;;;;;;;13.18;9.57;;;9.90;99.90;;;;;;5025205;28;20151;-69
2022/09/28 09:58:56;;;;;;;15.40;10.18;;;10.00;99.90;;;;;;5020559;28;20045;-70
2022/09/28 10:01:31;;;;;;;13.68;9.63;;;10.20;99.90;;;;;;5023858;28;20049;-69
2022/09/28 10:03:57;;;;;;;13.90;9.32;;;10.40;99.90;;;;;;5021437;28;20053;-69
2022/09/28 10:06:32;;;;;;;15.38;10.05;;;10.50;99.90;;;;;;5030686;28;20528;-69
2022/09/28 10:09:05;;;;;;;13.27;10.90;;;10.50;99.90;;;;;;5026636;28;20045;-69
2022/09/28 10:11:35;;;;;;;12.63;9.18;;;10.60;99.90;;;;;;5010083;28;20061;-69
2022/09/28 10:14:02;;;;;;;13.90;9.57;;;10.60;99.90;;;;;;5029523;28;20049;-69
2022/09/28 10:16:29;;;;;;;14.50;9.43;;;10.60;99.90;;;;;;5016852;28;20057;-69
2022/09/28 10:18:55;;;;;;;12.32;9.50;;;10.70;99.90;;;;;;5024834;28;20050;-69
2022/09/28 10:21:22;;;;;;;13.55;8.82;;;10.80;99.90;;;;;;5032366;28;20748;-69
2022/09/28 10:23:57;;;;;;;12.68;8.70;;;10.90;99.90;;;;;;5034627;28;20465;-69
2022/09/28 10:26:38;;;;;;;12.25;9.07;;;11.10;99.90;;;;;;4991420;28;20049;-69
2022/09/28 10:29:14;;;;;;;13.85;8.65;;;11.20;99.90;;;;;;5021124;28;20053;-69
2022/09/28 10:31:45;;;;;;;11.30;7.57;;;11.10;99.90;;;;;;5053808;28;20046;-69
2022/09/28 10:34:16;;;;;;;11.45;8.63;;;11.00;99.90;;;;;;5034636;28;20045;-69
2022/09/28 10:37:05;;;;;;;12.32;8.70;;;11.10;99.90;;;;;;5038696;28;20113;-69
2022/09/28 10:39:37;;;;;;;11.30;8.00;;;11.20;99.90;;;;;;5034713;28;20053;-69
2022/09/28 10:42:10;;;;;;;12.30;7.68;;;11.20;99.90;;;;;;5040008;28;20104;-69
2022/09/28 10:44:52;;;;;;;10.95;8.10;;;11.20;99.90;;;;;;5027434;28;20147;-69
2022/09/28 10:47:21;;;;;;;10.02;6.93;;;11.40;99.90;;;;;;5035099;28;20055;-70
2022/09/28 10:49:49;;;;;;;9.60;6.90;;;11.50;99.90;;;;;;5030953;28;20061;-69
2022/09/28 10:52:40;;;;;;;9.77;7.15;;;11.50;99.90;;;;;;5038261;28;20045;-69
2022/09/28 10:55:31;;;;;;;10.52;7.30;;;11.60;99.90;;;;;;5031441;28;20578;-68
2022/09/28 10:57:57;;;;;;;9.25;6.25;;;11.80;99.90;;;;;;5032425;28;20061;-68
2022/09/28 11:00:43;;;;;;;9.35;6.38;;;11.90;99.90;;;;;;5033048;28;20041;-69
2022/09/28 11:03:49;;;;;;;8.38;5.70;;;12.10;99.90;;;;;;5034987;28;20041;-69
2022/09/28 11:06:23;;;;;;;7.32;5.25;;;12.30;99.90;;;;;;5002140;28;20065;-68
2022/09/28 11:08:49;;;;;;;11.55;5.40;;;12.40;99.90;;;;;;5036761;28;20287;-68
2022/09/28 11:11:20;;;;;;;9.02;5.85;;;12.50;99.90;;;;;;5009739;28;20084;-68
2022/09/28 11:13:55;;;;;;;7.82;5.45;;;12.70;99.90;;;;;;5042485;28;20042;-68
2022/09/28 11:16:24;;;;;;;7.60;5.43;;;12.80;99.90;;;;;;5028800;28;20440;-68
2022/09/28 11:18:50;;;;;;;5.55;4.20;;;12.90;99.90;;;;;;5036706;28;20038;-68
2022/09/28 11:21:20;;;;;;;6.40;4.13;;;12.90;99.90;;;;;;5015616;28;20076;-68
2022/09/28 11:24:25;;;;;;;6.25;3.35;;;13.00;99.90;;;;;;5038579;28;20053;-68
2022/09/28 11:26:58;;;;;;;7.18;4.50;;;13.00;99.90;;;;;;5010866;28;20060;-68
2022/09/28 11:29:40;;;;;;;5.75;3.78;;;13.20;99.90;;;;;;5025512;28;20052;-68
2022/09/28 11:32:08;;;;;;;6.75;3.42;;;13.40;99.90;;;;;;5040513;28;20128;-68
2022/09/28 11:34:43;;;;;;;4.93;3.45;;;13.60;99.90;;;;;;5031165;28;20053;-68
2022/09/28 11:37:32;;;;;;;5.40;3.40;;;13.80;99.90;;;;;;5039605;28;20038;-68
2022/09/28 11:40:12;;;;;;;6.28;3.70;;;14.00;99.90;;;;;;5032344;28;20059;-68
2022/09/28 11:42:55;;;;;;;6.57;5.18;;;13.90;99.90;;;;;;5038765;28;20045;-68
2022/09/28 11:45:35;;;;;;;5.85;3.72;;;13.90;99.90;;;;;;5040256;28;20110;-68
2022/09/28 11:48:04;;;;;;;3.67;2.17;;;13.80;99.90;;;;;;5043592;28;20053;-69
2022/09/28 11:50:52;;;;;;;4.75;2.40;;;13.60;99.90;;;;;;5029353;28;20045;-68
2022/09/28 11:53:29;;;;;;;4.35;2.83;;;13.60;99.90;;;;;;5036659;28;20045;-69
2022/09/28 11:56:31;;;;;;;3.42;2.40;;;13.50;99.90;;;;;;5030326;28;20057;-69
2022/09/28 11:59:02;;;;;;;3.30;1.80;;;13.30;99.90;;;;;;5033276;28;20056;-68
2022/09/28 12:01:46;;;;;;;4.93;3.20;;;13.20;99.90;;;;;;5028502;28;20116;-70
2022/09/28 12:04:28;;;;;;;6.63;4.32;;;13.10;99.90;;;;;;5033833;28;20076;-73
2022/09/28 12:07:16;;;;;;;7.15;4.35;;;13.00;99.90;;;;;;5021837;28;20045;-72
2022/09/28 12:09:46;;;;;;;6.43;4.38;;;12.90;99.90;;;;;;5025314;28;20143;-71
2022/09/28 12:12:34;;;;;;;8.75;4.38;;;12.80;99.90;;;;;;4999868;28;20053;-70
2022/09/28 12:15:31;;;;;;;7.47;4.35;;;12.60;99.90;;;;;;5025293;28;20049;-69
2022/09/28 12:18:02;;;;;;;9.52;4.68;;;12.50;99.90;;;;;;4990263;28;20050;-70
2022/09/28 12:20:51;;;;;;;6.50;4.15;;;12.40;99.90;;;;;;4977475;28;20054;-70
2022/09/28 12:23:25;;;;;;;7.22;5.05;;;12.40;99.90;;;;;;4989956;28;20059;-69
2022/09/28 12:25:59;;;;;;;6.93;4.72;;;12.40;99.90;;;;;;4953044;28;20137;-69
2022/09/28 12:28:34;;;;;;;11.13;4.47;;;12.50;99.90;;;;;;4966176;28;20059;-69
2022/09/28 12:31:29;;;;;;;5.80;4.10;;;12.40;99.90;;;;;;4963586;28;20057;-69
2022/09/28 12:33:55;;;;;;;5.63;3.92;;;12.50;99.90;;;;;;4986939;28;20074;-71
2022/09/28 12:36:51;;;;;;;6.60;4.97;;;12.50;99.90;;;;;;4957320;28;20130;-71
2022/09/28 12:39:42;;;;;;;8.15;4.90;;;12.50;99.90;;;;;;4976239;28;20050;-71
2022/09/28 12:42:26;;;;;;;7.85;5.25;;;12.60;99.90;;;;;;4951357;28;20046;-70
2022/09/28 12:45:26;;;;;;;8.32;5.60;;;12.60;99.90;;;;;;4952126;28;20054;-71
2022/09/28 12:48:10;;;;;;;9.05;6.10;;;12.60;99.90;;;;;;4966902;28;20065;-71
2022/09/28 12:50:48;;;;;;;7.47;5.70;;;12.60;99.90;;;;;;4964564;28;20220;-71
2022/09/28 12:53:25;;;;;;;8.65;5.38;;;12.90;99.90;;;;;;4983786;28;20141;-70
2022/09/28 12:55:59;;;;;;;8.20;5.32;;;13.20;99.90;;;;;;5029926;28;20045;-71
2022/09/28 12:59:07;;;;;;;8.40;5.32;;;14.10;99.90;;;;;;5024793;28;20395;-73
2022/09/28 13:01:52;;;;;;;7.47;5.65;;;15.60;99.90;;;;;;5030201;28;20545;-71
2022/09/28 13:04:24;;;;;;;5.88;4.03;;;17.20;99.90;;;;;;5033016;28;20049;-71
2022/09/28 13:06:53;;;;;;;7.57;3.90;;;18.30;99.90;;;;;;4995878;28;20831;-71
2022/09/28 13:09:27;;;;;;;4.95;3.67;;;19.20;99.90;;;;;;5032619;28;20052;-71
2022/09/28 13:12:22;;;;;;;4.45;3.40;;;19.80;99.90;;;;;;5010843;28;20559;-70
2022/09/28 13:15:14;;;;;;;3.65;2.90;;;19.40;99.90;;;;;;5026974;28;20045;-71
2022/09/28 13:17:54;;;;;;;5.22;3.20;;;18.70;99.90;;;;;;5003488;28;20045;-67
2022/09/28 13:20:35;;;;;;;;;;;18.10;99.90;;;;;;5018482;28;20073;-71
2022/09/28 13:23:21;;;;;;;6.32;4.43;;;17.30;99.90;;;;;;5021322;28;19924;-70
2022/09/28 13:25:59;;;;;;;3.75;3.05;;;16.90;99.90;;;;;;5013913;28;20157;-71